sensor_id;sensor_type;location;lat;lon;timestamp;pressure;altitude;pressure_sealevel;temperature;humidity
48926;BME280;39838;59.938;30.642;2022-09-09T00:02:22;101907.22;;;8.45;68.48
48926;BME280;39838;59.938;30.642;2022-09-09T00:04:58;101891.13;;;8.27;69.15
48926;BME280;39838;59.938;30.642;2022-09-09T00:07:37;101910.03;;;8.26;70.80
48926;BME280;39838;59.938;30.642;2022-09-09T00:10:16;101915.03;;;8.19;70.74
48926;BME280;39838;59.938;30.642;2022-09-09T00:12:54;101910.47;;;8.12;70.66
48926;BME280;39838;59.938;30.642;2022-09-09T00:15:25;101916.41;;;8.08;69.85
48926;BME280;39838;59.938;30.642;2022-09-09T00:17:59;101916.09;;;7.99;69.95
48926;BME280;39838;59.938;30.642;2022-09-09T00:20:34;101919.38;;;7.93;70.83
48926;BME280;39838;59.938;30.642;2022-09-09T00:23:10;101891.09;;;7.73;70.94
48926;BME280;39838;59.938;30.642;2022-09-09T00:25:44;101910.38;;;7.82;70.71
48926;BME280;39838;59.938;30.642;2022-09-09T00:28:19;101919.94;;;7.85;70.91
48926;BME280;39838;59.938;30.642;2022-09-09T00:30:47;101924.56;;;7.93;71.15
48926;BME280;39838;59.938;30.642;2022-09-09T00:33:17;101904.31;;;7.82;71.58
48926;BME280;39838;59.938;30.642;2022-09-09T00:35:49;101928.94;;;7.96;71.43
48926;BME280;39838;59.938;30.642;2022-09-09T00:38:20;101921.34;;;8.01;71.49
48926;BME280;39838;59.938;30.642;2022-09-09T00:40:53;101930.19;;;8.07;71.17
48926;BME280;39838;59.938;30.642;2022-09-09T00:43:27;101933.72;;;8.11;71.29
48926;BME280;39838;59.938;30.642;2022-09-09T00:46:27;101933.72;;;8.11;71.02
48926;BME280;39838;59.938;30.642;2022-09-09T00:49:04;101930.19;;;8.07;70.96
48926;BME280;39838;59.938;30.642;2022-09-09T00:51:45;101932.69;;;8.06;71.39
48926;BME280;39838;59.938;30.642;2022-09-09T00:54:27;101920.47;;;8.00;71.58
48926;BME280;39838;59.938;30.642;2022-09-09T00:57:12;101903.69;;;7.89;71.11
48926;BME280;39838;59.938;30.642;2022-09-09T00:59:47;101929.22;;;8.05;71.18
48926;BME280;39838;59.938;30.642;2022-09-09T01:02:26;101915.16;;;7.97;71.45
48926;BME280;39838;59.938;30.642;2022-09-09T01:04:58;101925.22;;;8.13;71.28
48926;BME280;39838;59.938;30.642;2022-09-09T01:07:28;101927.03;;;8.17;71.36
48926;BME280;39838;59.938;30.642;2022-09-09T01:09:57;101929.75;;;8.20;71.21
48926;BME280;39838;59.938;30.642;2022-09-09T01:12:28;101926.22;;;8.18;71.42
48926;BME280;39838;59.938;30.642;2022-09-09T01:15:04;101931.56;;;8.23;70.67
48926;BME280;39838;59.938;30.642;2022-09-09T01:17:52;101926.53;;;8.28;70.98
48926;BME280;39838;59.938;30.642;2022-09-09T01:20:24;101901.06;;;8.14;71.09
48926;BME280;39838;59.938;30.642;2022-09-09T01:23:16;101931.84;;;8.32;70.52
48926;BME280;39838;59.938;30.642;2022-09-09T01:26:11;101894.16;;;8.13;71.19
48926;BME280;39838;59.938;30.642;2022-09-09T01:28:41;101927.69;;;8.36;71.68
48926;BME280;39838;59.938;30.642;2022-09-09T01:31:11;101932.84;;;8.36;70.93
48926;BME280;39838;59.938;30.642;2022-09-09T01:33:41;101932.63;;;8.30;69.58
48926;BME280;39838;59.938;30.642;2022-09-09T01:36:10;101911.47;;;8.16;69.95
48926;BME280;39838;59.938;30.642;2022-09-09T01:38:39;101932.66;;;8.31;70.23
48926;BME280;39838;59.938;30.642;2022-09-09T01:41:08;101931.03;;;8.33;69.51
48926;BME280;39838;59.938;30.642;2022-09-09T01:43:35;101927.69;;;8.36;69.27
48926;BME280;39838;59.938;30.642;2022-09-09T01:46:03;101928.59;;;8.38;70.30
48926;BME280;39838;59.938;30.642;2022-09-09T01:48:31;101930.31;;;8.37;69.70
48926;BME280;39838;59.938;30.642;2022-09-09T01:50:58;101924.25;;;8.37;69.92
48926;BME280;39838;59.938;30.642;2022-09-09T01:53:25;101933.06;;;8.42;70.50
48926;BME280;39838;59.938;30.642;2022-09-09T01:56:00;101940.88;;;8.43;70.79
48926;BME280;39838;59.938;30.642;2022-09-09T01:58:38;101931.31;;;8.41;70.37
48926;BME280;39838;59.938;30.642;2022-09-09T02:01:16;101935.31;;;8.33;71.10
48926;BME280;39838;59.938;30.642;2022-09-09T02:03:49;101933.50;;;8.30;70.97
48926;BME280;39838;59.938;30.642;2022-09-09T02:06:25;101934.38;;;8.31;71.66
48926;BME280;39838;59.938;30.642;2022-09-09T02:08:55;101930.13;;;8.33;72.45
48926;BME280;39838;59.938;30.642;2022-09-09T02:11:25;101919.72;;;8.31;71.81
48926;BME280;39838;59.938;30.642;2022-09-09T02:13:56;101905.63;;;8.21;72.41
48926;BME280;39838;59.938;30.642;2022-09-09T02:16:27;101933.66;;;8.35;72.06
48926;BME280;39838;59.938;30.642;2022-09-09T02:18:59;101934.56;;;8.35;72.07
48926;BME280;39838;59.938;30.642;2022-09-09T02:21:29;101909.97;;;8.23;72.06
48926;BME280;39838;59.938;30.642;2022-09-09T02:23:59;101925.56;;;8.26;72.71
48926;BME280;39838;59.938;30.642;2022-09-09T02:26:31;101932.34;;;8.20;72.86
48926;BME280;39838;59.938;30.642;2022-09-09T02:29:02;101931.31;;;8.15;73.54
48926;BME280;39838;59.938;30.642;2022-09-09T02:31:31;101937.19;;;8.11;73.59
48926;BME280;39838;59.938;30.642;2022-09-09T02:34:02;101940.75;;;8.13;73.46
48926;BME280;39838;59.938;30.642;2022-09-09T02:36:32;101912.63;;;7.99;73.48
48926;BME280;39838;59.938;30.642;2022-09-09T02:39:00;101939.91;;;8.14;73.44
48926;BME280;39838;59.938;30.642;2022-09-09T02:41:31;101931.41;;;8.18;73.98
48926;BME280;39838;59.938;30.642;2022-09-09T02:43:58;101926.41;;;8.25;73.88
48926;BME280;39838;59.938;30.642;2022-09-09T02:46:40;101930.75;;;8.26;73.29
48926;BME280;39838;59.938;30.642;2022-09-09T02:49:16;101930.97;;;8.32;73.56
48926;BME280;39838;59.938;30.642;2022-09-09T02:51:53;101930.19;;;8.34;73.01
48926;BME280;39838;59.938;30.642;2022-09-09T02:54:27;101927.72;;;8.37;72.44
48926;BME280;39838;59.938;30.642;2022-09-09T02:56:59;101929.44;;;8.37;73.33
48926;BME280;39838;59.938;30.642;2022-09-09T02:59:29;101923.25;;;8.33;73.53
48926;BME280;39838;59.938;30.642;2022-09-09T03:01:58;101925.91;;;8.35;73.44
48926;BME280;39838;59.938;30.642;2022-09-09T03:04:25;101924.25;;;8.37;73.55
48926;BME280;39838;59.938;30.642;2022-09-09T03:06:52;101914.50;;;8.30;73.94
48926;BME280;39838;59.938;30.642;2022-09-09T03:09:19;101924.91;;;8.31;73.73
48926;BME280;39838;59.938;30.642;2022-09-09T03:11:46;101924.13;;;8.34;73.34
48926;BME280;39838;59.938;30.642;2022-09-09T03:14:15;101928.44;;;8.33;72.89
48926;BME280;39838;59.938;30.642;2022-09-09T03:16:42;101928.59;;;8.38;73.81
48926;BME280;39838;59.938;30.642;2022-09-09T03:19:10;101925.25;;;8.40;74.06
48926;BME280;39838;59.938;30.642;2022-09-09T03:21:37;101927.03;;;8.43;74.02
48926;BME280;39838;59.938;30.642;2022-09-09T03:24:05;101928.06;;;8.48;73.80
48926;BME280;39838;59.938;30.642;2022-09-09T03:26:32;101924.72;;;8.52;74.16
48926;BME280;39838;59.938;30.642;2022-09-09T03:29:00;101926.47;;;8.53;73.47
48926;BME280;39838;59.938;30.642;2022-09-09T03:31:27;101931.78;;;8.56;72.34
48926;BME280;39838;59.938;30.642;2022-09-09T03:33:56;101930.06;;;8.57;73.19
48926;BME280;39838;59.938;30.642;2022-09-09T03:36:25;101930.78;;;8.53;73.18
48926;BME280;39838;59.938;30.642;2022-09-09T03:38:53;101929.97;;;8.54;74.02
48926;BME280;39838;59.938;30.642;2022-09-09T03:41:21;101921.41;;;8.56;73.76
48926;BME280;39838;59.938;30.642;2022-09-09T03:43:49;101930.03;;;8.55;73.02
48926;BME280;39838;59.938;30.642;2022-09-09T03:46:17;101925.72;;;8.56;74.20
48926;BME280;39838;59.938;30.642;2022-09-09T03:48:44;101924.03;;;8.58;73.26
48926;BME280;39838;59.938;30.642;2022-09-09T03:51:12;101930.22;;;8.61;72.75
48926;BME280;39838;59.938;30.642;2022-09-09T03:53:41;101917.91;;;8.54;72.70
48926;BME280;39838;59.938;30.642;2022-09-09T03:56:08;101926.75;;;8.61;72.71
48926;BME280;39838;59.938;30.642;2022-09-09T03:58:36;101926.66;;;8.59;72.65
48926;BME280;39838;59.938;30.642;2022-09-09T04:01:05;101872.22;;;8.31;73.73
48926;BME280;39838;59.938;30.642;2022-09-09T04:03:34;101923.34;;;8.63;73.77
48926;BME280;39838;59.938;30.642;2022-09-09T04:06:03;101929.44;;;8.65;74.91
48926;BME280;39838;59.938;30.642;2022-09-09T04:08:30;101925.28;;;8.70;73.46
48926;BME280;39838;59.938;30.642;2022-09-09T04:11:00;101930.50;;;8.72;74.72
48926;BME280;39838;59.938;30.642;2022-09-09T04:13:32;101928.09;;;8.78;73.80
48926;BME280;39838;59.938;30.642;2022-09-09T04:16:00;101919.38;;;8.74;73.61
48926;BME280;39838;59.938;30.642;2022-09-09T04:18:29;101932.41;;;8.78;74.36
48926;BME280;39838;59.938;30.642;2022-09-09T04:20:56;101929.78;;;8.76;73.47
48926;BME280;39838;59.938;30.642;2022-09-09T04:23:24;101930.69;;;8.78;73.44
48926;BME280;39838;59.938;30.642;2022-09-09T04:25:53;101929.81;;;8.78;72.96
48926;BME280;39838;59.938;30.642;2022-09-09T04:28:23;101936.72;;;8.77;73.06
48926;BME280;39838;59.938;30.642;2022-09-09T04:30:51;101935.84;;;8.77;73.17
48926;BME280;39838;59.938;30.642;2022-09-09T04:33:18;101937.56;;;8.76;73.15
48926;BME280;39838;59.938;30.642;2022-09-09T04:35:46;101934.09;;;8.75;73.17
48926;BME280;39838;59.938;30.642;2022-09-09T04:38:14;101939.28;;;8.75;72.77
48926;BME280;39838;59.938;30.642;2022-09-09T04:40:42;101933.41;;;8.81;73.00
48926;BME280;39838;59.938;30.642;2022-09-09T04:43:10;101915.00;;;8.73;72.88
48926;BME280;39838;59.938;30.642;2022-09-09T04:45:38;101938.16;;;8.96;73.29
48926;BME280;39838;59.938;30.642;2022-09-09T04:48:06;101929.78;;;9.06;73.36
48926;BME280;39838;59.938;30.642;2022-09-09T04:50:35;101928.22;;;9.11;72.66
48926;BME280;39838;59.938;30.642;2022-09-09T04:53:02;101934.59;;;9.22;73.57
48926;BME280;39838;59.938;30.642;2022-09-09T04:55:30;101929.72;;;9.35;73.22
48926;BME280;39838;59.938;30.642;2022-09-09T04:57:57;101932.66;;;9.47;71.78
48926;BME280;39838;59.938;30.642;2022-09-09T05:00:24;101934.56;;;9.52;70.97
48926;BME280;39838;59.938;30.642;2022-09-09T05:02:53;101943.25;;;9.54;71.40
48926;BME280;39838;59.938;30.642;2022-09-09T05:05:20;101941.50;;;9.53;71.00
48926;BME280;39838;59.938;30.642;2022-09-09T05:07:48;101944.94;;;9.52;70.87
48926;BME280;39838;59.938;30.642;2022-09-09T05:10:15;101939.72;;;9.51;70.96
48926;BME280;39838;59.938;30.642;2022-09-09T05:12:52;101942.19;;;9.48;70.98
48926;BME280;39838;59.938;30.642;2022-09-09T05:15:19;101943.72;;;9.40;70.76
48926;BME280;39838;59.938;30.642;2022-09-09T05:17:47;101936.56;;;9.31;71.23
48926;BME280;39838;59.938;30.642;2022-09-09T05:20:15;101940.53;;;9.18;71.13
48926;BME280;39838;59.938;30.642;2022-09-09T05:22:42;101942.78;;;9.08;71.27
48926;BME280;39838;59.938;30.642;2022-09-09T05:25:10;101947.00;;;9.02;71.93
48926;BME280;39838;59.938;30.642;2022-09-09T05:27:37;101948.75;;;9.03;71.84
48926;BME280;39838;59.938;30.642;2022-09-09T05:30:05;101946.19;;;9.05;71.70
48926;BME280;39838;59.938;30.642;2022-09-09T05:32:32;101953.31;;;9.12;71.82
48926;BME280;39838;59.938;30.642;2022-09-09T05:34:59;101947.63;;;9.25;71.73
48926;BME280;39838;59.938;30.642;2022-09-09T05:37:30;101941.81;;;9.34;71.99
48926;BME280;39838;59.938;30.642;2022-09-09T05:39:57;101952.34;;;9.39;71.28
48926;BME280;39838;59.938;30.642;2022-09-09T05:42:29;101919.16;;;9.27;71.36
48926;BME280;39838;59.938;30.642;2022-09-09T05:44:57;101929.84;;;9.38;71.26
48926;BME280;39838;59.938;30.642;2022-09-09T05:47:24;101946.06;;;9.62;71.54
48926;BME280;39838;59.938;30.642;2022-09-09T05:49:53;101952.66;;;9.82;71.04
48926;BME280;39838;59.938;30.642;2022-09-09T05:52:21;101951.31;;;9.97;70.51
48926;BME280;39838;59.938;30.642;2022-09-09T05:54:50;101951.59;;;10.09;70.45
48926;BME280;39838;59.938;30.642;2022-09-09T05:57:17;101952.63;;;10.16;69.52
48926;BME280;39838;59.938;30.642;2022-09-09T05:59:45;101937.81;;;10.11;69.54
48926;BME280;39838;59.938;30.642;2022-09-09T06:02:12;101943.19;;;10.19;69.66
48926;BME280;39838;59.938;30.642;2022-09-09T06:04:39;101945.06;;;10.23;68.93
48926;BME280;39838;59.938;30.642;2022-09-09T06:07:07;101948.59;;;10.27;69.69
48926;BME280;39838;59.938;30.642;2022-09-09T06:09:34;101942.50;;;10.25;69.83
48926;BME280;39838;59.938;30.642;2022-09-09T06:12:03;101956.38;;;10.25;69.08
48926;BME280;39838;59.938;30.642;2022-09-09T06:14:30;101951.22;;;10.27;69.60
48926;BME280;39838;59.938;30.642;2022-09-09T06:16:57;101952.09;;;10.29;69.80
48926;BME280;39838;59.938;30.642;2022-09-09T06:19:24;101963.44;;;10.31;69.03
48926;BME280;39838;59.938;30.642;2022-09-09T06:21:52;101950.34;;;10.28;69.23
48926;BME280;39838;59.938;30.642;2022-09-09T06:24:20;101960.03;;;10.33;69.63
48926;BME280;39838;59.938;30.642;2022-09-09T06:26:47;101958.34;;;10.35;69.51
48926;BME280;39838;59.938;30.642;2022-09-09T06:29:16;101961.00;;;10.37;68.67
48926;BME280;39838;59.938;30.642;2022-09-09T06:31:43;101957.56;;;10.39;68.83
48926;BME280;39838;59.938;30.642;2022-09-09T06:34:10;101963.66;;;10.40;68.55
48926;BME280;39838;59.938;30.642;2022-09-09T06:36:38;101952.44;;;10.43;68.35
48926;BME280;39838;59.938;30.642;2022-09-09T06:39:06;101963.97;;;10.54;68.71
48926;BME280;39838;59.938;30.642;2022-09-09T06:41:34;101956.25;;;10.57;68.54
48926;BME280;39838;59.938;30.642;2022-09-09T06:44:02;101959.81;;;10.62;68.69
48926;BME280;39838;59.938;30.642;2022-09-09T06:46:32;101968.66;;;10.70;69.21
48926;BME280;39838;59.938;30.642;2022-09-09T06:49:01;101968.75;;;10.73;68.67
48926;BME280;39838;59.938;30.642;2022-09-09T06:51:29;101930.19;;;10.54;67.48
48926;BME280;39838;59.938;30.642;2022-09-09T06:53:58;101959.94;;;10.66;67.80
48926;BME280;39838;59.938;30.642;2022-09-09T06:56:27;101962.56;;;10.68;68.01
48926;BME280;39838;59.938;30.642;2022-09-09T06:58:55;101957.47;;;10.73;66.76
48926;BME280;39838;59.938;30.642;2022-09-09T07:01:25;101956.81;;;10.83;66.91
48926;BME280;39838;59.938;30.642;2022-09-09T07:03:55;101957.94;;;10.92;66.32
48926;BME280;39838;59.938;30.642;2022-09-09T07:06:25;101945.94;;;10.99;65.53
48926;BME280;39838;59.938;30.642;2022-09-09T07:08:54;101953.94;;;11.10;65.01
48926;BME280;39838;59.938;30.642;2022-09-09T07:11:22;101934.91;;;11.11;64.54
48926;BME280;39838;59.938;30.642;2022-09-09T07:13:51;101957.81;;;11.30;63.40
48926;BME280;39838;59.938;30.642;2022-09-09T07:16:19;101962.28;;;11.36;60.12
48926;BME280;39838;59.938;30.642;2022-09-09T07:18:49;101959.78;;;11.40;60.78
48926;BME280;39838;59.938;30.642;2022-09-09T07:21:18;101959.06;;;11.49;60.13
48926;BME280;39838;59.938;30.642;2022-09-09T07:23:46;101964.44;;;11.58;58.66
48926;BME280;39838;59.938;30.642;2022-09-09T07:26:15;101962.75;;;11.59;57.92
48926;BME280;39838;59.938;30.642;2022-09-09T07:28:43;101958.31;;;11.55;57.99
48926;BME280;39838;59.938;30.642;2022-09-09T07:31:13;101971.31;;;11.53;57.93
48926;BME280;39838;59.938;30.642;2022-09-09T07:33:40;101974.03;;;11.59;58.15
48926;BME280;39838;59.938;30.642;2022-09-09T07:36:09;101961.94;;;11.63;57.17
48926;BME280;39838;59.938;30.642;2022-09-09T07:38:39;101962.31;;;11.81;56.43
48926;BME280;39838;59.938;30.642;2022-09-09T07:41:07;101973.94;;;12.00;55.42
48926;BME280;39838;59.938;30.642;2022-09-09T07:43:37;101972.56;;;12.20;55.46
48926;BME280;39838;59.938;30.642;2022-09-09T07:46:06;101972.06;;;12.44;55.45
48926;BME280;39838;59.938;30.642;2022-09-09T07:48:33;101966.38;;;12.70;55.17
48926;BME280;39838;59.938;30.642;2022-09-09T07:51:08;101969.34;;;12.96;54.96
48926;BME280;39838;59.938;30.642;2022-09-09T07:53:38;101978.31;;;13.16;53.60
48926;BME280;39838;59.938;30.642;2022-09-09T07:56:07;101968.06;;;13.30;52.87
48926;BME280;39838;59.938;30.642;2022-09-09T07:58:36;101968.16;;;13.37;52.94
48926;BME280;39838;59.938;30.642;2022-09-09T08:01:07;101977.78;;;13.42;52.13
48926;BME280;39838;59.938;30.642;2022-09-09T08:03:35;101978.78;;;13.54;51.99
48926;BME280;39838;59.938;30.642;2022-09-09T08:06:03;101981.50;;;13.63;51.95
48926;BME280;39838;59.938;30.642;2022-09-09T08:08:31;101978.16;;;13.75;51.76
48926;BME280;39838;59.938;30.642;2022-09-09T08:11:05;101974.78;;;13.87;51.02
48926;BME280;39838;59.938;30.642;2022-09-09T08:13:33;101970.53;;;14.00;50.75
48926;BME280;39838;59.938;30.642;2022-09-09T08:16:05;101970.72;;;14.18;50.27
48926;BME280;39838;59.938;30.642;2022-09-09T08:18:33;101983.03;;;14.36;49.48
48926;BME280;39838;59.938;30.642;2022-09-09T08:21:05;101974.47;;;14.47;49.24
48926;BME280;39838;59.938;30.642;2022-09-09T08:23:34;101979.81;;;14.64;48.94
48926;BME280;39838;59.938;30.642;2022-09-09T08:26:09;101971.16;;;14.71;48.96
48926;BME280;39838;59.938;30.642;2022-09-09T08:28:36;101972.84;;;14.63;52.01
48926;BME280;39838;59.938;30.642;2022-09-09T08:31:08;101979.81;;;14.66;49.75
48926;BME280;39838;59.938;30.642;2022-09-09T08:33:36;101978.06;;;14.63;49.38
48926;BME280;39838;59.938;30.642;2022-09-09T08:36:05;101973.63;;;14.55;49.51
48926;BME280;39838;59.938;30.642;2022-09-09T08:38:33;101979.69;;;14.49;49.54
48926;BME280;39838;59.938;30.642;2022-09-09T08:41:14;101981.34;;;14.38;49.38
48926;BME280;39838;59.938;30.642;2022-09-09T08:43:46;101966.41;;;14.25;49.62
48926;BME280;39838;59.938;30.642;2022-09-09T08:46:19;101984.72;;;14.29;49.79
48926;BME280;39838;59.938;30.642;2022-09-09T08:48:53;101948.66;;;13.88;50.30
48926;BME280;39838;59.938;30.642;2022-09-09T08:51:25;101982.81;;;14.07;49.90
48926;BME280;39838;59.938;30.642;2022-09-09T08:53:54;101986.28;;;14.03;50.18
48926;BME280;39838;59.938;30.642;2022-09-09T08:56:27;101979.31;;;14.03;51.02
48926;BME280;39838;59.938;30.642;2022-09-09T08:59:00;101980.19;;;14.04;51.01
48926;BME280;39838;59.938;30.642;2022-09-09T09:01:37;101983.66;;;14.06;51.64
48926;BME280;39838;59.938;30.642;2022-09-09T09:04:11;101982.03;;;14.18;51.89
48926;BME280;39838;59.938;30.642;2022-09-09T09:06:50;101981.28;;;14.32;51.15
48926;BME280;39838;59.938;30.642;2022-09-09T09:09:28;101979.59;;;14.40;50.93
48926;BME280;39838;59.938;30.642;2022-09-09T09:12:00;101978.84;;;14.52;50.81
48926;BME280;39838;59.938;30.642;2022-09-09T09:14:30;101978.88;;;14.53;50.24
48926;BME280;39838;59.938;30.642;2022-09-09T09:17:01;101964.78;;;14.39;49.86
48926;BME280;39838;59.938;30.642;2022-09-09T09:19:30;101991.97;;;14.59;49.86
48926;BME280;39838;59.938;30.642;2022-09-09T09:22:03;101983.31;;;14.69;50.42
48926;BME280;39838;59.938;30.642;2022-09-09T09:24:41;101988.66;;;14.85;49.87
48926;BME280;39838;59.938;30.642;2022-09-09T09:27:15;101985.25;;;15.02;48.84
48926;BME280;39838;59.938;30.642;2022-09-09T09:29:43;101978.25;;;14.94;48.11
48926;BME280;39838;59.938;30.642;2022-09-09T09:32:14;101973.88;;;14.94;48.07
48926;BME280;39838;59.938;30.642;2022-09-09T09:34:48;101978.34;;;15.11;47.90
48926;BME280;39838;59.938;30.642;2022-09-09T09:37:18;101973.16;;;15.30;47.95
48926;BME280;39838;59.938;30.642;2022-09-09T09:39:47;101973.25;;;15.52;47.91
48926;BME280;39838;59.938;30.642;2022-09-09T09:42:17;101968.03;;;15.58;46.50
48926;BME280;39838;59.938;30.642;2022-09-09T09:44:45;101967.16;;;15.54;46.89
48926;BME280;39838;59.938;30.642;2022-09-09T09:47:14;101943.53;;;15.32;46.63
48926;BME280;39838;59.938;30.642;2022-09-09T09:49:51;101960.06;;;15.21;46.97
48926;BME280;39838;59.938;30.642;2022-09-09T09:52:22;101968.69;;;15.03;47.42
48926;BME280;39838;59.938;30.642;2022-09-09T09:54:50;101967.75;;;14.86;47.67
48926;BME280;39838;59.938;30.642;2022-09-09T09:57:25;101965.03;;;14.71;47.69
48926;BME280;39838;59.938;30.642;2022-09-09T10:00:03;101963.22;;;14.59;47.92
48926;BME280;39838;59.938;30.642;2022-09-09T10:02:38;101965.78;;;14.55;47.46
48926;BME280;39838;59.938;30.642;2022-09-09T10:05:13;101923.78;;;14.32;47.92
48926;BME280;39838;59.938;30.642;2022-09-09T10:07:40;101963.16;;;14.53;47.86
48926;BME280;39838;59.938;30.642;2022-09-09T10:10:13;101970.97;;;14.47;47.75
48926;BME280;39838;59.938;30.642;2022-09-09T10:12:53;101964.78;;;14.37;48.18
48926;BME280;39838;59.938;30.642;2022-09-09T10:15:40;101965.66;;;14.41;48.22
48926;BME280;39838;59.938;30.642;2022-09-09T10:18:24;101918.44;;;14.18;47.91
48926;BME280;39838;59.938;30.642;2022-09-09T10:21:03;101943.00;;;14.40;48.45
48926;BME280;39838;59.938;30.642;2022-09-09T10:23:46;101922.91;;;14.33;48.06
48926;BME280;39838;59.938;30.642;2022-09-09T10:26:32;101950.97;;;14.52;47.49
48926;BME280;39838;59.938;30.642;2022-09-09T10:29:20;101962.25;;;14.48;47.28
48926;BME280;39838;59.938;30.642;2022-09-09T10:31:55;101956.16;;;14.46;47.38
48926;BME280;39838;59.938;30.642;2022-09-09T10:34:41;101961.47;;;14.57;47.63
48926;BME280;39838;59.938;30.642;2022-09-09T10:37:24;101950.13;;;14.61;47.15
48926;BME280;39838;59.938;30.642;2022-09-09T10:40:02;101954.53;;;14.65;47.59
48926;BME280;39838;59.938;30.642;2022-09-09T10:42:32;101958.94;;;14.70;47.44
48926;BME280;39838;59.938;30.642;2022-09-09T10:45:13;101950.09;;;14.55;46.78
48926;BME280;39838;59.938;30.642;2022-09-09T10:48:01;101961.25;;;14.31;47.09
48926;BME280;39838;59.938;30.642;2022-09-09T10:50:45;101921.81;;;14.03;47.61
48926;BME280;39838;59.938;30.642;2022-09-09T10:53:25;101948.88;;;14.11;47.53
48926;BME280;39838;59.938;30.642;2022-09-09T10:55:59;101951.56;;;14.20;48.05
48926;BME280;39838;59.938;30.642;2022-09-09T10:58:33;101950.91;;;14.46;47.11
48926;BME280;39838;59.938;30.642;2022-09-09T11:01:12;101952.00;;;14.77;46.61
48926;BME280;39838;59.938;30.642;2022-09-09T11:03:42;101952.13;;;15.09;46.32
48926;BME280;39838;59.938;30.642;2022-09-09T11:06:13;101935.66;;;15.33;45.78
48926;BME280;39838;59.938;30.642;2022-09-09T11:08:42;101947.94;;;15.55;45.25
48926;BME280;39838;59.938;30.642;2022-09-09T11:11:12;101926.13;;;15.58;45.02
48926;BME280;39838;59.938;30.642;2022-09-09T11:13:45;101927.94;;;15.74;44.70
48926;BME280;39838;59.938;30.642;2022-09-09T11:16:24;101950.66;;;15.86;44.74
48926;BME280;39838;59.938;30.642;2022-09-09T11:18:58;101944.56;;;16.01;44.81
48926;BME280;39838;59.938;30.642;2022-09-09T11:21:29;101913.09;;;16.07;44.06
48926;BME280;39838;59.938;30.642;2022-09-09T11:24:01;101938.44;;;16.32;43.78
48926;BME280;39838;59.938;30.642;2022-09-09T11:26:33;101941.91;;;16.30;43.88
48926;BME280;39838;59.938;30.642;2022-09-09T11:29:19;101936.66;;;16.37;43.93
48926;BME280;39838;59.938;30.642;2022-09-09T11:32:03;101925.31;;;16.35;43.18
48926;BME280;39838;59.938;30.642;2022-09-09T11:34:44;101937.53;;;16.32;43.45
48926;BME280;39838;59.938;30.642;2022-09-09T11:37:28;101929.66;;;16.30;43.18
48926;BME280;39838;59.938;30.642;2022-09-09T11:40:14;101909.56;;;16.19;43.67
48926;BME280;39838;59.938;30.642;2022-09-09T11:42:44;101928.78;;;16.25;42.98
48926;BME280;39838;59.938;30.642;2022-09-09T11:45:21;101927.06;;;16.18;43.24
48926;BME280;39838;59.938;30.642;2022-09-09T11:47:53;101922.69;;;16.22;42.85
48926;BME280;39838;59.938;30.642;2022-09-09T11:50:32;101927.06;;;16.26;42.77
48926;BME280;39838;59.938;30.642;2022-09-09T11:56:04;101931.41;;;16.31;42.70
48926;BME280;39838;59.938;30.642;2022-09-09T11:58:37;101900.88;;;16.06;43.21
48926;BME280;39838;59.938;30.642;2022-09-09T12:01:29;101920.94;;;16.16;43.72
48926;BME280;39838;59.938;30.642;2022-09-09T12:06:51;101915.72;;;16.21;43.49
48926;BME280;39838;59.938;30.642;2022-09-09T12:09:25;101916.56;;;16.32;42.95
48926;BME280;39838;59.938;30.642;2022-09-09T12:12:06;101915.69;;;16.34;42.83
48926;BME280;39838;59.938;30.642;2022-09-09T12:14:37;101913.06;;;16.42;42.30
48926;BME280;39838;59.938;30.642;2022-09-09T12:17:26;101916.53;;;16.50;43.15
48926;BME280;39838;59.938;30.642;2022-09-09T12:20:06;101904.31;;;16.29;42.18
48926;BME280;39838;59.938;30.642;2022-09-09T12:22:43;101900.84;;;16.09;43.07
48926;BME280;39838;59.938;30.642;2022-09-09T12:25:20;101900.00;;;15.87;43.04
48926;BME280;39838;59.938;30.642;2022-09-09T12:28:02;101900.00;;;15.95;43.46
48926;BME280;39838;59.938;30.642;2022-09-09T12:30:36;101895.59;;;16.21;43.49
48926;BME280;39838;59.938;30.642;2022-09-09T12:33:11;101892.06;;;16.54;43.11
48926;BME280;39838;59.938;30.642;2022-09-09T12:35:43;101900.66;;;16.98;42.92
48926;BME280;39838;59.938;30.642;2022-09-09T12:38:14;101876.00;;;17.26;42.54
48926;BME280;39838;59.938;30.642;2022-09-09T12:40:54;101894.28;;;17.44;42.15
48926;BME280;39838;59.938;30.642;2022-09-09T12:43:23;101896.19;;;17.23;41.63
48926;BME280;39838;59.938;30.642;2022-09-09T12:45:51;101898.06;;;16.96;42.02
48926;BME280;39838;59.938;30.642;2022-09-09T12:48:28;101906.88;;;16.81;42.80
48926;BME280;39838;59.938;30.642;2022-09-09T12:50:58;101900.75;;;16.75;42.85
48926;BME280;39838;59.938;30.642;2022-09-09T12:53:29;101896.38;;;16.66;43.00
48926;BME280;39838;59.938;30.642;2022-09-09T12:56:02;101902.53;;;16.54;43.07
48926;BME280;39838;59.938;30.642;2022-09-09T12:58:31;101898.22;;;16.29;43.58
48926;BME280;39838;59.938;30.642;2022-09-09T13:01:02;101885.13;;;16.07;44.02
48926;BME280;39838;59.938;30.642;2022-09-09T13:03:31;101893.84;;;16.05;44.12
48926;BME280;39838;59.938;30.642;2022-09-09T13:06:11;101891.25;;;16.08;44.06
48926;BME280;39838;59.938;30.642;2022-09-09T13:08:39;101892.09;;;16.16;44.16
48926;BME280;39838;59.938;30.642;2022-09-09T13:11:10;101881.63;;;16.16;44.29
48926;BME280;39838;59.938;30.642;2022-09-09T13:13:41;101885.97;;;16.23;43.85
48926;BME280;39838;59.938;30.642;2022-09-09T13:16:19;101883.38;;;16.09;43.77